Route Details

Aircraft Information
Group: North America Fleet
Types: B738, B752, B762, B763
Route Data
Distance: 309nm
Duration: 1h 35m
Origin METAR: KRFD 181654Z 22006KT 10SM SCT040 SCT250 26/16 A3005 RMK AO2 SLP171 T02610161
Dest. METAR: KMCI 181653Z VRB03KT 10SM SCT045TCU SCT200 27/17 A3007 RMK AO2 SLP173 TCU VC ALQDS T02720167
Freight Data
(for Aug 18, 2022)
Load Factor:
20%
Manifested Cargo: 13,465lbs
Financial History
Total Freight: 217,656lbs
Average Load: 0lbs/flt
Fuel Used: 37,050lbs
Avg. Fuel Used: 0lbs/flt
Fuel Expense: $27,046
Avg. Fuel Expense: $0
Avg. Fuel Cost: $0/lbs
Total Gross Income: $289,244
Pilot Pay: $457
Total Expenses: $31,394
Total Revenue: $229,940
Average Revenue: $0

Capitol Logistics 410




KRFD
Chicago/Rockford International Airport
Rockford, Illinois
KMCI
Kansas City International Airport
Kansas City, Missouri

Activity Log

Date Flight Route Aircraft Duration
01/14/2020 CPX320 BDF J26 IRK BQS6 B763 1h 18m
12/07/2019 CPX320 PLL MZV J232 IRK BQS4 B763 1h 16m
07/18/2019 CPX320 PLL MZV J232 IRK BQS4 B763 1h 12m